createdAt,value
2018-12-19T00:00:00.375Z,8.10
2018-12-19T00:02:28.051Z,11.37
2018-12-19T00:04:55.670Z,9.33
2018-12-19T00:07:23.364Z,10.80
2018-12-19T00:09:51.002Z,8.93
2018-12-19T00:12:18.860Z,7.40
2018-12-19T00:14:46.525Z,8.93
2018-12-19T00:17:14.192Z,8.23
2018-12-19T00:19:41.954Z,9.17
2018-12-19T00:22:09.551Z,7.67
2018-12-19T00:24:37.403Z,8.43
2018-12-19T00:27:04.949Z,7.57
2018-12-19T00:29:32.705Z,6.97
2018-12-19T00:32:00.146Z,6.03
2018-12-19T00:34:27.861Z,7.70
2018-12-19T00:36:55.591Z,6.33
2018-12-19T00:39:23.188Z,7.60
2018-12-19T00:41:51.023Z,7.03
2018-12-19T00:44:18.571Z,9.00
2018-12-19T00:46:46.336Z,7.60
2018-12-19T00:49:14.005Z,7.10
2018-12-19T00:51:41.663Z,7.33
2018-12-19T00:54:09.326Z,9.07
2018-12-19T00:56:37.011Z,9.23
2018-12-19T00:59:04.676Z,9.87
2018-12-19T01:01:32.409Z,6.07
2018-12-19T01:04:00.155Z,9.80
2018-12-19T01:06:27.760Z,6.00
2018-12-19T01:08:55.466Z,7.77
2018-12-19T01:11:22.939Z,9.10
2018-12-19T01:13:50.617Z,5.73
2018-12-19T01:16:18.411Z,8.63
2018-12-19T01:18:46.074Z,6.03
2018-12-19T01:21:13.709Z,6.43
2018-12-19T01:23:41.480Z,7.13
2018-12-19T01:26:09.234Z,9.23
2018-12-19T01:28:36.996Z,8.17
2018-12-19T01:31:05.578Z,10.17
2018-12-19T01:33:33.202Z,7.60
2018-12-19T01:36:00.979Z,7.97
2018-12-19T01:38:28.866Z,6.63
2018-12-19T01:40:56.747Z,7.63
2018-12-19T01:43:24.520Z,6.97
2018-12-19T01:45:52.275Z,7.93
2018-12-19T01:48:20.021Z,8.17
2018-12-19T01:50:47.683Z,4.83
2018-12-19T01:53:15.449Z,8.00
2018-12-19T01:55:43.388Z,5.50
2018-12-19T01:58:11.078Z,8.77
2018-12-19T02:00:38.949Z,6.57
2018-12-19T02:03:06.608Z,7.10
2018-12-19T02:05:34.274Z,6.17
2018-12-19T02:08:02.036Z,5.20
2018-12-19T02:10:29.802Z,8.17
2018-12-19T02:12:57.467Z,6.60
2018-12-19T02:15:25.227Z,5.90
2018-12-19T02:17:52.990Z,9.47
2018-12-19T02:20:20.597Z,8.10
2018-12-19T02:22:48.415Z,5.73
2018-12-19T02:25:15.984Z,5.53
2018-12-19T02:27:43.649Z,6.47
2018-12-19T02:30:11.316Z,5.17
2018-12-19T02:32:39.049Z,4.50
2018-12-19T02:35:06.730Z,6.80
2018-12-19T02:37:34.503Z,4.70
2018-12-19T02:40:02.253Z,5.70
2018-12-19T02:42:30.125Z,4.80
2018-12-19T02:44:57.785Z,5.27
2018-12-19T02:47:25.365Z,6.87
2018-12-19T02:49:53.103Z,4.67
2018-12-19T02:52:20.751Z,6.90
2018-12-19T02:54:48.532Z,4.63
2018-12-19T02:57:16.198Z,5.67
2018-12-19T02:59:43.832Z,4.73
2018-12-19T03:02:11.599Z,7.93
2018-12-19T03:04:39.552Z,7.07
2018-12-19T03:07:07.258Z,5.33
2018-12-19T03:09:35.097Z,6.60
2018-12-19T03:12:02.957Z,4.87
2018-12-19T03:14:30.556Z,5.50
2018-12-19T03:16:58.339Z,4.07
2018-12-19T03:19:26.025Z,4.87
2018-12-19T03:21:53.775Z,6.20
2018-12-19T03:24:21.676Z,5.73
2018-12-19T03:26:49.376Z,5.57
2018-12-19T03:29:17.027Z,5.33
2018-12-19T03:31:44.672Z,5.10
2018-12-19T03:34:12.273Z,5.17
2018-12-19T03:36:39.892Z,4.97
2018-12-19T03:39:07.544Z,4.20
2018-12-19T03:41:35.254Z,4.80
2018-12-19T03:44:02.873Z,7.40
2018-12-19T03:46:30.554Z,8.67
2018-12-19T03:48:58.298Z,5.37
2018-12-19T03:51:25.899Z,6.23
2018-12-19T03:53:53.451Z,6.23
2018-12-19T03:56:21.096Z,4.47
2018-12-19T03:58:48.850Z,5.40
2018-12-19T04:01:17.165Z,4.83
2018-12-19T04:03:44.922Z,8.80
2018-12-19T04:06:12.657Z,6.80
2018-12-19T04:08:40.236Z,5.17
2018-12-19T04:11:07.837Z,9.07
2018-12-19T04:13:35.723Z,8.87
2018-12-19T04:16:03.795Z,6.70
2018-12-19T04:18:31.579Z,8.83
2018-12-19T04:20:59.244Z,5.87
2018-12-19T04:23:26.897Z,12.00
2018-12-19T04:25:54.665Z,8.97
2018-12-19T04:28:22.227Z,9.40
2018-12-19T04:30:49.926Z,11.40
2018-12-19T04:33:17.643Z,11.50
2018-12-19T04:35:46.018Z,12.87
2018-12-19T04:38:14.439Z,8.47
2018-12-19T04:40:42.183Z,11.57
2018-12-19T04:43:09.843Z,6.70
2018-12-19T04:45:37.690Z,10.70
2018-12-19T04:48:05.260Z,26.03
2018-12-19T04:50:32.966Z,27.57
2018-12-19T04:53:00.617Z,29.90
2018-12-19T04:55:28.249Z,27.93
2018-12-19T04:57:55.993Z,28.00
2018-12-19T05:00:23.668Z,23.77
2018-12-19T05:02:51.234Z,21.10
2018-12-19T05:05:19.028Z,19.50
2018-12-19T05:07:46.727Z,26.30
2018-12-19T05:10:14.393Z,21.50
2018-12-19T05:12:41.999Z,21.87
2018-12-19T05:15:09.561Z,23.07
2018-12-19T05:17:37.215Z,21.43
2018-12-19T05:20:08.788Z,21.20
2018-12-19T05:22:36.460Z,20.40
2018-12-19T05:25:07.346Z,20.37
2018-12-19T05:27:36.135Z,15.03
2018-12-19T05:30:05.918Z,17.77
2018-12-19T05:32:33.586Z,19.00
2018-12-19T05:35:01.474Z,22.13
2018-12-19T05:37:29.134Z,17.60
2018-12-19T05:39:56.716Z,19.33
2018-12-19T05:42:24.444Z,19.57
2018-12-19T05:44:52.099Z,25.77
2018-12-19T05:47:19.989Z,21.07
2018-12-19T05:49:48.241Z,19.73
2018-12-19T05:52:15.767Z,20.03
2018-12-19T05:54:43.489Z,20.80
2018-12-19T05:57:12.196Z,24.13
2018-12-19T05:59:39.932Z,18.60
2018-12-19T06:02:08.090Z,17.50
2018-12-19T06:04:35.768Z,13.83
2018-12-19T06:07:03.436Z,16.70
2018-12-19T06:09:31.128Z,14.97
2018-12-19T06:11:58.771Z,13.03
2018-12-19T06:14:26.478Z,14.27
2018-12-19T06:16:54.380Z,16.47
2018-12-19T06:19:21.848Z,13.63
2018-12-19T06:21:49.573Z,17.63
2018-12-19T06:24:17.011Z,13.83
2018-12-19T06:26:44.842Z,12.67
2018-12-19T06:29:12.294Z,18.23
2018-12-19T06:31:40.146Z,12.33
2018-12-19T06:34:07.840Z,13.97
2018-12-19T06:36:35.870Z,13.53
2018-12-19T06:39:04.382Z,14.07
2018-12-19T06:41:32.208Z,15.90
2018-12-19T06:43:59.882Z,14.13
2018-12-19T06:46:27.757Z,13.90
2018-12-19T06:48:55.224Z,12.27
2018-12-19T06:51:23.366Z,13.37
2018-12-19T06:53:51.264Z,12.33
2018-12-19T06:56:19.306Z,14.87
2018-12-19T06:58:46.806Z,15.63
2018-12-19T07:01:14.748Z,10.13
2018-12-19T07:03:42.506Z,12.47
2018-12-19T07:06:10.380Z,14.37
2018-12-19T07:08:37.836Z,12.13
2018-12-19T07:11:05.778Z,14.13
2018-12-19T07:13:33.360Z,12.03
2018-12-19T07:16:01.458Z,12.27
2018-12-19T07:18:29.006Z,9.97
2018-12-19T07:20:57.188Z,14.03
2018-12-19T07:23:24.832Z,13.73
2018-12-19T07:25:52.260Z,13.23
2018-12-19T07:28:20.238Z,13.27
2018-12-19T07:30:47.714Z,9.87
2018-12-19T07:33:15.667Z,12.80
2018-12-19T07:35:43.477Z,13.93
2018-12-19T07:38:11.135Z,9.87
2018-12-19T07:40:38.554Z,11.30
2018-12-19T07:43:06.014Z,11.13
2018-12-19T07:45:33.983Z,11.50
2018-12-19T07:48:01.596Z,9.80
2018-12-19T07:50:29.404Z,13.93
2018-12-19T07:52:57.474Z,9.43
2018-12-19T07:55:25.763Z,10.87
2018-12-19T07:57:53.413Z,11.53
2018-12-19T08:00:27.240Z,7.43
2018-12-19T08:02:50.480Z,14.83
2018-12-19T08:05:17.930Z,8.97
2018-12-19T08:07:45.901Z,16.33
2018-12-19T08:10:13.324Z,15.43
2018-12-19T08:12:40.814Z,14.13
2018-12-19T08:15:08.674Z,17.30
2018-12-19T08:17:36.348Z,16.37
2018-12-19T08:20:04.260Z,17.07
2018-12-19T08:22:31.675Z,19.27
2018-12-19T08:24:59.613Z,22.00
2018-12-19T08:27:27.812Z,18.17
2018-12-19T08:29:55.770Z,19.10
2018-12-19T08:32:23.247Z,20.43
2018-12-19T08:34:50.640Z,20.50
2018-12-19T08:37:18.528Z,16.47
2018-12-19T08:39:46.620Z,24.23
2018-12-19T08:42:14.602Z,17.60
2018-12-19T08:44:42.776Z,15.53
2018-12-19T08:47:10.441Z,15.23
2018-12-19T08:49:38.168Z,20.67
2018-12-19T08:52:06.064Z,14.20
2018-12-19T08:54:33.940Z,14.97
2018-12-19T08:57:01.389Z,13.57
2018-12-19T08:59:29.365Z,12.70
2018-12-19T09:01:57.436Z,14.63
2018-12-19T09:04:25.921Z,16.40
2018-12-19T09:06:53.783Z,15.27
2018-12-19T09:09:22.037Z,13.67
2018-12-19T09:11:50.132Z,11.63
2018-12-19T09:14:18.204Z,12.07
2018-12-19T09:16:45.847Z,10.63
2018-12-19T09:19:13.370Z,11.97
2018-12-19T09:21:40.888Z,11.23
2018-12-19T09:24:08.812Z,13.20
2018-12-19T09:26:36.586Z,11.03
2018-12-19T09:29:04.058Z,10.37
2018-12-19T09:31:31.478Z,9.13
2018-12-19T09:33:59.072Z,11.57
2018-12-19T09:36:26.942Z,10.80
2018-12-19T09:38:54.344Z,8.33
2018-12-19T09:41:21.954Z,10.47
2018-12-19T09:43:49.737Z,9.03
2018-12-19T09:46:17.277Z,8.67
2018-12-19T09:48:45.182Z,14.37
2018-12-19T09:51:12.729Z,7.43
2018-12-19T09:53:40.295Z,8.47
2018-12-19T09:56:07.724Z,12.10
2018-12-19T09:58:35.179Z,6.77
2018-12-19T10:01:05.828Z,9.17
2018-12-19T10:03:32.531Z,9.93
2018-12-19T10:06:00.229Z,9.03
2018-12-19T10:08:27.789Z,8.70
2018-12-19T10:10:55.923Z,11.77
2018-12-19T10:13:23.898Z,7.53
2018-12-19T10:15:51.561Z,6.50
2018-12-19T10:18:19.063Z,6.60
2018-12-19T10:20:47.003Z,7.53
2018-12-19T10:23:15.076Z,7.77
2018-12-19T10:25:42.739Z,5.57
2018-12-19T10:28:10.345Z,11.37
2018-12-19T10:30:40.141Z,8.27
2018-12-19T10:33:07.876Z,6.47
2018-12-19T10:35:36.067Z,6.67
2018-12-19T10:38:03.507Z,6.17
2018-12-19T10:40:31.051Z,5.57
2018-12-19T10:42:59.228Z,7.03
2018-12-19T10:45:27.108Z,7.03
2018-12-19T10:47:54.670Z,7.30
2018-12-19T10:50:22.076Z,6.80
2018-12-19T10:52:49.889Z,5.83
2018-12-19T10:55:17.747Z,6.53
2018-12-19T10:57:45.391Z,6.33
2018-12-19T11:00:15.068Z,10.93
2018-12-19T11:02:42.875Z,5.80
2018-12-19T11:05:10.820Z,6.03
2018-12-19T11:07:38.424Z,6.77
2018-12-19T11:10:07.085Z,6.03
2018-12-19T11:12:34.562Z,6.73
2018-12-19T11:15:02.203Z,5.47
2018-12-19T11:17:30.090Z,6.40
2018-12-19T11:19:57.730Z,7.40
2018-12-19T11:22:25.304Z,9.13
2018-12-19T11:24:53.414Z,4.97
2018-12-19T11:27:21.519Z,7.47
2018-12-19T11:29:49.217Z,5.63
2018-12-19T11:32:17.036Z,6.90
2018-12-19T11:34:44.545Z,7.27
2018-12-19T11:37:12.268Z,5.30
2018-12-19T11:39:40.234Z,5.73
2018-12-19T11:42:08.024Z,5.27
2018-12-19T11:44:35.956Z,6.70
2018-12-19T11:47:03.754Z,5.30
2018-12-19T11:49:31.432Z,6.00
2018-12-19T11:51:58.956Z,6.90
2018-12-19T11:54:26.466Z,5.73
2018-12-19T11:56:53.999Z,5.87
2018-12-19T11:59:21.549Z,5.70
2018-12-19T12:01:49.030Z,5.97
2018-12-19T12:04:16.498Z,5.17
2018-12-19T12:06:44.429Z,4.43
2018-12-19T12:09:12.070Z,5.97
2018-12-19T12:11:45.398Z,5.00
2018-12-19T12:14:09.140Z,5.03
2018-12-19T12:16:37.014Z,4.57
2018-12-19T12:19:04.684Z,5.13
2018-12-19T12:21:32.549Z,6.33
2018-12-19T12:24:00.298Z,5.30
2018-12-19T12:26:28.190Z,4.83
2018-12-19T12:28:55.788Z,4.47
2018-12-19T12:31:23.773Z,5.93
2018-12-19T12:33:53.700Z,4.90
2018-12-19T12:36:21.221Z,5.10
2018-12-19T12:38:48.825Z,5.93
2018-12-19T12:41:16.635Z,6.50
2018-12-19T12:43:44.367Z,5.67
2018-12-19T12:46:11.819Z,4.83
2018-12-19T12:48:39.756Z,4.50
2018-12-19T12:51:07.369Z,5.47
2018-12-19T12:53:35.013Z,4.10
2018-12-19T12:56:02.469Z,4.13
2018-12-19T12:58:30.027Z,4.77
2018-12-19T13:00:57.672Z,5.37
2018-12-19T13:03:25.148Z,5.47
2018-12-19T13:05:52.712Z,7.63
2018-12-19T13:08:20.269Z,4.10
2018-12-19T13:10:47.709Z,4.53
2018-12-19T13:13:15.491Z,4.53
2018-12-19T13:15:45.188Z,4.33
2018-12-19T13:18:12.844Z,4.70
2018-12-19T13:20:40.568Z,4.60
2018-12-19T13:23:08.173Z,4.40
2018-12-19T13:25:35.952Z,3.67
2018-12-19T13:28:03.409Z,3.63
2018-12-19T13:30:31.078Z,4.90
2018-12-19T13:32:58.612Z,5.37
2018-12-19T13:35:26.696Z,5.00
2018-12-19T13:37:54.358Z,5.00
2018-12-19T13:40:22.320Z,4.70
2018-12-19T13:42:50.114Z,4.40
2018-12-19T13:45:18.032Z,4.23
2018-12-19T13:47:45.748Z,6.23
2018-12-19T13:50:13.794Z,4.47
2018-12-19T13:52:41.430Z,4.37
2018-12-19T13:55:08.914Z,3.43
2018-12-19T13:57:37.078Z,4.50
2018-12-19T14:00:07.933Z,4.30
2018-12-19T14:02:35.615Z,5.10
2018-12-19T14:05:03.420Z,3.97
2018-12-19T14:07:31.396Z,4.80
2018-12-19T14:09:59.477Z,3.93
2018-12-19T14:12:27.227Z,4.13
2018-12-19T14:14:55.310Z,3.67
2018-12-19T14:17:22.762Z,5.70
2018-12-19T14:19:50.229Z,4.07
2018-12-19T14:22:17.885Z,5.27
2018-12-19T14:24:45.872Z,4.33
2018-12-19T14:27:13.628Z,3.93
2018-12-19T14:29:41.369Z,3.47
2018-12-19T14:32:09.019Z,4.33
2018-12-19T14:34:37.517Z,3.33
2018-12-19T14:37:04.980Z,3.87
2018-12-19T14:39:32.429Z,3.50
2018-12-19T14:42:00.212Z,4.20
2018-12-19T14:44:27.868Z,4.10
2018-12-19T14:46:55.762Z,5.87
2018-12-19T14:49:23.494Z,5.63
2018-12-19T14:51:50.969Z,4.27
2018-12-19T14:54:18.409Z,4.43
2018-12-19T14:56:45.971Z,4.03
2018-12-19T14:59:13.968Z,4.10
2018-12-19T15:01:41.684Z,3.93
2018-12-19T15:04:09.382Z,3.70
2018-12-19T15:06:36.914Z,4.23
2018-12-19T15:09:06.006Z,3.60
2018-12-19T15:11:33.563Z,4.57
2018-12-19T15:14:01.267Z,5.83
2018-12-19T15:16:29.331Z,4.47
2018-12-19T15:18:57.164Z,3.40
2018-12-19T15:21:24.622Z,3.60
2018-12-19T15:23:52.615Z,3.57
2018-12-19T15:26:20.375Z,4.43
2018-12-19T15:28:48.043Z,3.43
2018-12-19T15:31:15.466Z,4.10
2018-12-19T15:33:42.952Z,4.63
2018-12-19T15:36:10.563Z,4.53
2018-12-19T15:38:38.367Z,3.37
2018-12-19T15:41:05.890Z,3.70
2018-12-19T15:43:33.491Z,3.43
2018-12-19T15:46:01.145Z,3.97
2018-12-19T15:48:29.182Z,4.20
2018-12-19T15:50:57.082Z,5.30
2018-12-19T15:53:24.750Z,4.00
2018-12-19T15:55:52.906Z,4.80
2018-12-19T15:58:20.576Z,4.00
2018-12-19T16:00:48.537Z,3.80
2018-12-19T16:03:16.060Z,4.17
2018-12-19T16:05:43.693Z,3.80
2018-12-19T16:08:11.820Z,4.13
2018-12-19T16:10:39.397Z,4.17
2018-12-19T16:13:07.052Z,3.53
2018-12-19T16:15:34.928Z,4.23
2018-12-19T16:18:02.585Z,3.83
2018-12-19T16:20:30.551Z,3.90
2018-12-19T16:22:58.116Z,3.67
2018-12-19T16:25:25.587Z,5.20
2018-12-19T16:27:53.170Z,3.50
2018-12-19T16:30:20.716Z,3.70
2018-12-19T16:32:48.764Z,3.87
2018-12-19T16:35:16.429Z,4.50
2018-12-19T16:37:44.394Z,3.40
2018-12-19T16:40:12.156Z,5.00
2018-12-19T16:42:45.921Z,4.00
2018-12-19T16:45:09.626Z,4.43
2018-12-19T16:47:37.070Z,3.30
2018-12-19T16:50:05.382Z,4.23
2018-12-19T16:52:32.783Z,4.37
2018-12-19T16:55:00.479Z,3.13
2018-12-19T16:57:28.331Z,3.30
2018-12-19T16:59:55.817Z,3.97
2018-12-19T17:02:23.759Z,3.37
2018-12-19T17:04:51.847Z,5.00
2018-12-19T17:07:19.809Z,3.87
2018-12-19T17:09:47.271Z,3.80
2018-12-19T17:12:15.240Z,3.83
2018-12-19T17:14:42.705Z,4.07
2018-12-19T17:17:10.650Z,3.63
2018-12-19T17:19:38.817Z,10.93
2018-12-19T17:22:06.310Z,15.87
2018-12-19T17:24:40.212Z,16.47
2018-12-19T17:27:07.918Z,21.80
2018-12-19T17:29:35.931Z,15.10
2018-12-19T17:32:03.810Z,12.80
2018-12-19T17:34:31.276Z,12.03
2018-12-19T17:36:59.125Z,13.83
2018-12-19T17:39:27.046Z,13.67
2018-12-19T17:41:54.465Z,12.73
2018-12-19T17:44:21.914Z,19.07
2018-12-19T17:46:49.937Z,41.93
2018-12-19T17:49:17.903Z,51.33
2018-12-19T17:51:45.943Z,75.20
2018-12-19T17:54:13.432Z,77.17
2018-12-19T17:56:41.274Z,77.13
2018-12-19T17:59:10.263Z,84.93
2018-12-19T18:01:38.227Z,82.97
2018-12-19T18:04:05.721Z,91.57
2018-12-19T18:06:33.711Z,91.13
2018-12-19T18:09:01.734Z,88.60
2018-12-19T18:11:29.826Z,90.07
2018-12-19T18:13:58.627Z,86.63
2018-12-19T18:16:26.788Z,92.33
2018-12-19T18:18:54.962Z,92.27
2018-12-19T18:21:23.041Z,87.23
2018-12-19T18:23:51.071Z,88.80
2018-12-19T18:26:19.299Z,81.03
2018-12-19T18:28:47.233Z,78.60
2018-12-19T18:31:14.846Z,88.50
2018-12-19T18:33:44.134Z,78.33
2018-12-19T18:36:11.806Z,88.63
2018-12-19T18:38:39.651Z,79.80
2018-12-19T18:41:08.590Z,71.23
2018-12-19T18:43:37.350Z,66.83
2018-12-19T18:46:05.061Z,72.73
2018-12-19T18:48:33.858Z,66.17
2018-12-19T18:51:03.326Z,65.47
2018-12-19T18:53:31.471Z,66.53
2018-12-19T18:55:59.653Z,64.33
2018-12-19T18:58:27.790Z,63.97
2018-12-19T19:00:55.904Z,68.27
2018-12-19T19:03:24.888Z,62.40
2018-12-19T19:05:52.656Z,63.03
2018-12-19T19:08:20.807Z,60.57
2018-12-19T19:10:48.742Z,61.20
2018-12-19T19:13:19.665Z,64.03
2018-12-19T19:15:46.274Z,60.17
2018-12-19T19:18:13.962Z,56.70
2018-12-19T19:20:42.099Z,60.87
2018-12-19T19:23:10.461Z,59.70
2018-12-19T19:25:38.238Z,56.83
2018-12-19T19:28:06.659Z,51.03
2018-12-19T19:30:34.297Z,54.03
2018-12-19T19:33:02.391Z,55.63
2018-12-19T19:35:31.471Z,54.17
2018-12-19T19:37:59.228Z,55.80
2018-12-19T19:40:27.713Z,47.17
2018-12-19T19:42:57.474Z,49.90
2018-12-19T19:45:26.440Z,48.97
2018-12-19T19:47:55.170Z,48.60
2018-12-19T19:50:23.212Z,51.63
2018-12-19T19:52:51.125Z,49.10
2018-12-19T19:55:19.134Z,49.03
2018-12-19T19:57:48.481Z,51.63
2018-12-19T20:00:18.916Z,46.40
2018-12-19T20:02:46.710Z,43.67
2018-12-19T20:05:17.078Z,49.53
2018-12-19T20:07:44.976Z,47.63
2018-12-19T20:10:12.673Z,42.30
2018-12-19T20:12:40.892Z,44.50
2018-12-19T20:15:08.450Z,48.07
2018-12-19T20:17:36.610Z,46.77
2018-12-19T20:20:05.835Z,42.73
2018-12-19T20:22:35.179Z,42.67
2018-12-19T20:25:03.206Z,41.27
2018-12-19T20:27:31.011Z,41.80
2018-12-19T20:29:58.720Z,41.27
2018-12-19T20:32:27.524Z,43.17
2018-12-19T20:34:55.308Z,44.10
2018-12-19T20:37:23.516Z,40.17
2018-12-19T20:39:51.426Z,38.10
2018-12-19T20:42:19.245Z,44.37
2018-12-19T20:44:47.501Z,33.73
2018-12-19T20:47:16.362Z,39.73
2018-12-19T20:49:44.471Z,34.47
2018-12-19T20:52:14.085Z,41.43
2018-12-19T20:54:43.333Z,36.53
2018-12-19T20:57:11.172Z,40.73
2018-12-19T20:59:39.569Z,37.23
2018-12-19T21:02:08.361Z,40.37
2018-12-19T21:04:36.778Z,38.60
2018-12-19T21:07:04.515Z,38.20
2018-12-19T21:09:33.072Z,38.03
2018-12-19T21:12:00.689Z,34.47
2018-12-19T21:14:28.231Z,34.97
2018-12-19T21:17:02.051Z,37.87
2018-12-19T21:19:31.505Z,23.63
2018-12-19T21:21:59.680Z,28.60
2018-12-19T21:24:29.520Z,30.90
2018-12-19T21:26:58.076Z,33.20
2018-12-19T21:29:26.916Z,31.40
2018-12-19T21:31:55.675Z,33.77
2018-12-19T21:34:24.083Z,36.63
2018-12-19T21:36:51.737Z,26.50
2018-12-19T21:39:19.851Z,29.73
2018-12-19T21:41:47.595Z,37.27
2018-12-19T21:44:15.734Z,28.53
2018-12-19T21:46:44.132Z,27.07
2018-12-19T21:49:11.765Z,26.13
2018-12-19T21:51:39.404Z,29.53
2018-12-19T21:54:08.249Z,28.90
2018-12-19T21:56:36.030Z,27.67
2018-12-19T21:59:03.792Z,29.17
2018-12-19T22:01:31.412Z,20.87
2018-12-19T22:03:59.609Z,22.48
2018-12-19T22:06:27.331Z,20.57
2018-12-19T22:08:55.052Z,20.13
2018-12-19T22:11:22.845Z,18.17
2018-12-19T22:13:50.712Z,17.90
2018-12-19T22:19:25.878Z,23.77
2018-12-19T22:21:53.532Z,17.33
2018-12-19T22:24:21.074Z,17.30
2018-12-19T22:26:48.752Z,16.30
2018-12-19T22:29:16.237Z,16.37
2018-12-19T22:31:43.792Z,15.13
2018-12-19T22:34:12.049Z,16.10
2018-12-19T22:36:39.716Z,15.23
2018-12-19T22:39:10.551Z,14.07
2018-12-19T22:41:38.128Z,16.00
2018-12-19T22:44:08.124Z,16.47
2018-12-19T22:46:35.241Z,12.47
2018-12-19T22:49:02.987Z,12.87
2018-12-19T22:51:31.110Z,13.10
2018-12-19T22:53:58.826Z,12.80
2018-12-19T22:56:26.378Z,13.67
2018-12-19T22:58:54.759Z,12.73
2018-12-19T23:04:27.010Z,11.77
2018-12-19T23:06:54.701Z,12.63
2018-12-19T23:09:22.205Z,13.40
2018-12-19T23:11:50.397Z,11.93
2018-12-19T23:14:18.013Z,11.50
2018-12-19T23:16:45.740Z,11.50
2018-12-19T23:19:13.621Z,11.83
2018-12-19T23:21:41.188Z,9.93
2018-12-19T23:24:09.516Z,12.20
2018-12-19T23:26:37.226Z,12.50
2018-12-19T23:29:05.299Z,9.83
2018-12-19T23:31:32.944Z,11.17
2018-12-19T23:34:00.578Z,11.10
2018-12-19T23:36:28.279Z,11.20
2018-12-19T23:38:55.821Z,10.07
2018-12-19T23:41:23.562Z,9.77
2018-12-19T23:43:51.380Z,9.70
2018-12-19T23:46:19.498Z,11.57
2018-12-19T23:48:47.274Z,11.63
2018-12-19T23:51:14.779Z,11.10
2018-12-19T23:53:43.073Z,9.97
2018-12-19T23:56:10.888Z,10.73
2018-12-19T23:58:38.939Z,8.87
